Share

Majuro, MH

9:02 PM MHT on April 25, 2014 (GMT +1200)
Sand Island, Henderson Field (PMDY) Elev 13 ft | 28.22 °N, 177.37 °W | Change Station

Current weather conditions updated 6 minutes ago

Mostly Cloudy
Mostly Cloudy
74 °F
Feels Like 74 °F
N
6
Wind Variable Wind from SE
Sunrise 6:24 AM
Sunset 6:44 PM
Moon Waning Crescent

Tomorrow is forecast to be nearly the same temperature as today. Thunderstorms.

Pressure 31.15 in
Visibility -9999.0 miles
Clouds Mostly Cloudy 4200 ft
Dew Point 74 °F
Humidity 100%
Rainfall 0.00 in
Snow Depth Not available.
UV 0 out of 16
Pollen Not available.
Air Quality Not available.
Flu Activity
METAR PMDY 250856Z AUTO 14005KT BKN042 23/23 A3024 RMK AO2 TSNO 51021 T02330233 SLP548 $

More Conditions Fewer Conditions

Pressure 31.15 in
Visibility -9999.0 miles
Clouds Mostly Cloudy 4200 ft
Dew Point 74 °F
Humidity 100%
Rainfall 0.00 in
Snow Depth Not available.
UV 0 out of 16
Pollen Not available.
Air Quality Not available.
Flu Activity
METAR PMDY 250856Z AUTO 14005KT BKN042 23/23 A3024 RMK AO2 TSNO 51021 T02330233 SLP548 $

More Conditions Fewer Conditions

10-Day Weather Forecast

Almanac

Astronomy

Apr. 25, 2014 Rise Set
Actual Time 6:24 AM MHT 6:44 PM MHT
Civil Twilight 6:02 AM MHT 7:06 PM MHT
Nautical Twilight 5:37 AM MHT 7:31 PM MHT
Astronomical Twilight 5:12 AM MHT 7:56 PM MHT
Moon 2:49 AM MHT 3:09 PM MHT
Length of Visible Light 13h 03m
Length of Day
12h 20m
Tomorrow will be 0m 22s longer.
Waning Crescent, 18% of the Moon is Illuminated
Today
Waning Crescent
Apr 29
New
May 6
First Quarter
May 14
Full
May 21
Last Quarter

Community

  • Storm Clouds & Sunset
    Storm Clouds & Sunset
  • Deer in evening light
    Deer in evening light
  • Critter
    Critter
  • Jone Runs Falls
    Jone Runs Falls
  • Easter in Shenandoah National Park
    Easter in Shenandoah National Park

WunderPhotos

Upload Photos

1,704,874 photos uploaded!

WunderBlogs® & News

Nearby

Snow Depth

Station Depth Elevation
No new snow has been reported.

Coastal Water Temperatures

Place Temperature
No Stations Reporting

Earthquake Activity

City Distance Mag. Time & Date
No recent earthquake activity has been reported nearby.
Minimum magnitude displayed is 2.5.

Nearby Weather Stations

There are no personal weather stations in this area.

What do you think?

We're not finished. Please let us know what you like, what you don't like, and what you are still missing.